sensor_id;sensor_type;location;lat;lon;timestamp;temperature;humidity
71436;SHT31;59251;51.326;12.370;2024-03-08T00:01:56;1.35;84.48
71436;SHT31;59251;51.326;12.370;2024-03-08T00:04:23;1.31;84.51
71436;SHT31;59251;51.326;12.370;2024-03-08T00:06:51;1.35;84.25
71436;SHT31;59251;51.326;12.370;2024-03-08T00:09:18;1.34;84.33
71436;SHT31;59251;51.326;12.370;2024-03-08T00:11:47;1.34;84.24
71436;SHT31;59251;51.326;12.370;2024-03-08T00:14:14;1.34;84.45
71436;SHT31;59251;51.326;12.370;2024-03-08T00:16:41;1.28;84.27
71436;SHT31;59251;51.326;12.370;2024-03-08T00:19:09;1.30;84.42
71436;SHT31;59251;51.326;12.370;2024-03-08T00:21:35;1.23;84.67
71436;SHT31;59251;51.326;12.370;2024-03-08T00:24:04;1.21;84.57
71436;SHT31;59251;51.326;12.370;2024-03-08T00:26:30;1.25;84.44
71436;SHT31;59251;51.326;12.370;2024-03-08T00:28:58;1.24;84.47
71436;SHT31;59251;51.326;12.370;2024-03-08T00:31:25;1.18;84.48
71436;SHT31;59251;51.326;12.370;2024-03-08T00:33:51;1.15;84.61
71436;SHT31;59251;51.326;12.370;2024-03-08T00:36:18;1.23;84.53
71436;SHT31;59251;51.326;12.370;2024-03-08T00:38:45;1.27;84.38
71436;SHT31;59251;51.326;12.370;2024-03-08T00:41:13;1.27;84.39
71436;SHT31;59251;51.326;12.370;2024-03-08T00:43:40;1.17;84.67
71436;SHT31;59251;51.326;12.370;2024-03-08T00:46:06;1.18;84.60
71436;SHT31;59251;51.326;12.370;2024-03-08T00:48:33;1.20;84.46
71436;SHT31;59251;51.326;12.370;2024-03-08T00:51:00;1.25;84.51
71436;SHT31;59251;51.326;12.370;2024-03-08T00:53:27;1.15;84.61
71436;SHT31;59251;51.326;12.370;2024-03-08T00:55:54;1.17;84.78
71436;SHT31;59251;51.326;12.370;2024-03-08T00:58:22;1.08;85.01
71436;SHT31;59251;51.326;12.370;2024-03-08T01:00:50;1.11;84.75
71436;SHT31;59251;51.326;12.370;2024-03-08T01:03:17;1.09;84.77
71436;SHT31;59251;51.326;12.370;2024-03-08T01:05:43;1.05;85.11
71436;SHT31;59251;51.326;12.370;2024-03-08T01:08:10;1.24;84.70
71436;SHT31;59251;51.326;12.370;2024-03-08T01:10:37;1.17;84.68
71436;SHT31;59251;51.326;12.370;2024-03-08T01:13:04;1.21;84.67
71436;SHT31;59251;51.326;12.370;2024-03-08T01:15:32;1.08;85.07
71436;SHT31;59251;51.326;12.370;2024-03-08T01:17:59;1.13;84.89
71436;SHT31;59251;51.326;12.370;2024-03-08T01:20:26;1.13;84.78
71436;SHT31;59251;51.326;12.370;2024-03-08T01:22:53;1.09;84.94
71436;SHT31;59251;51.326;12.370;2024-03-08T01:25:20;1.00;85.13
71436;SHT31;59251;51.326;12.370;2024-03-08T01:27:46;1.11;85.16
71436;SHT31;59251;51.326;12.370;2024-03-08T01:30:13;0.97;85.27
71436;SHT31;59251;51.326;12.370;2024-03-08T01:32:44;0.88;85.43
71436;SHT31;59251;51.326;12.370;2024-03-08T01:35:10;1.00;85.48
71436;SHT31;59251;51.326;12.370;2024-03-08T01:37:37;0.96;85.43
71436;SHT31;59251;51.326;12.370;2024-03-08T01:40:05;0.97;85.33
71436;SHT31;59251;51.326;12.370;2024-03-08T01:42:32;0.86;85.65
71436;SHT31;59251;51.326;12.370;2024-03-08T01:44:59;0.91;85.53
71436;SHT31;59251;51.326;12.370;2024-03-08T01:47:25;0.97;85.39
71436;SHT31;59251;51.326;12.370;2024-03-08T01:49:54;0.88;85.57
71436;SHT31;59251;51.326;12.370;2024-03-08T01:52:20;0.93;85.74
71436;SHT31;59251;51.326;12.370;2024-03-08T01:54:49;0.91;85.90
71436;SHT31;59251;51.326;12.370;2024-03-08T01:57:16;0.91;85.66
71436;SHT31;59251;51.326;12.370;2024-03-08T01:59:43;0.90;86.00
71436;SHT31;59251;51.326;12.370;2024-03-08T02:02:11;0.87;86.17
71436;SHT31;59251;51.326;12.370;2024-03-08T02:04:40;1.00;85.73
71436;SHT31;59251;51.326;12.370;2024-03-08T02:07:08;0.87;86.28
71436;SHT31;59251;51.326;12.370;2024-03-08T02:09:35;0.83;86.25
71436;SHT31;59251;51.326;12.370;2024-03-08T02:12:02;0.81;86.37
71436;SHT31;59251;51.326;12.370;2024-03-08T02:14:33;0.73;86.77
71436;SHT31;59251;51.326;12.370;2024-03-08T02:17:00;0.75;86.84
71436;SHT31;59251;51.326;12.370;2024-03-08T02:19:27;0.69;87.00
71436;SHT31;59251;51.326;12.370;2024-03-08T02:21:55;0.63;87.34
71436;SHT31;59251;51.326;12.370;2024-03-08T02:24:23;0.73;86.98
71436;SHT31;59251;51.326;12.370;2024-03-08T02:26:51;0.70;87.09
71436;SHT31;59251;51.326;12.370;2024-03-08T02:29:19;0.73;86.84
71436;SHT31;59251;51.326;12.370;2024-03-08T02:31:46;0.80;86.85
71436;SHT31;59251;51.326;12.370;2024-03-08T02:34:13;0.79;86.93
71436;SHT31;59251;51.326;12.370;2024-03-08T02:36:40;0.76;86.88
71436;SHT31;59251;51.326;12.370;2024-03-08T02:39:08;0.73;87.19
71436;SHT31;59251;51.326;12.370;2024-03-08T02:41:35;0.75;87.10
71436;SHT31;59251;51.326;12.370;2024-03-08T02:44:02;0.70;87.34
71436;SHT31;59251;51.326;12.370;2024-03-08T02:46:29;0.69;87.36
71436;SHT31;59251;51.326;12.370;2024-03-08T02:48:56;0.80;87.22
71436;SHT31;59251;51.326;12.370;2024-03-08T02:51:23;0.73;87.26
71436;SHT31;59251;51.326;12.370;2024-03-08T02:53:51;0.70;87.43
71436;SHT31;59251;51.326;12.370;2024-03-08T02:56:20;0.76;87.25
71436;SHT31;59251;51.326;12.370;2024-03-08T02:58:47;0.72;87.39
71436;SHT31;59251;51.326;12.370;2024-03-08T03:01:14;0.77;87.38
71436;SHT31;59251;51.326;12.370;2024-03-08T03:03:41;0.70;87.56
71436;SHT31;59251;51.326;12.370;2024-03-08T03:06:07;0.62;87.70
71436;SHT31;59251;51.326;12.370;2024-03-08T03:08:34;0.66;87.69
71436;SHT31;59251;51.326;12.370;2024-03-08T03:11:01;0.63;87.68
71436;SHT31;59251;51.326;12.370;2024-03-08T03:13:29;0.62;87.83
71436;SHT31;59251;51.326;12.370;2024-03-08T03:15:56;0.60;87.68
71436;SHT31;59251;51.326;12.370;2024-03-08T03:18:23;0.66;87.84
71436;SHT31;59251;51.326;12.370;2024-03-08T03:20:51;0.59;87.76
71436;SHT31;59251;51.326;12.370;2024-03-08T03:23:18;0.57;87.89
71436;SHT31;59251;51.326;12.370;2024-03-08T03:25:45;0.65;87.75
71436;SHT31;59251;51.326;12.370;2024-03-08T03:28:12;0.66;87.72
71436;SHT31;59251;51.326;12.370;2024-03-08T03:30:44;0.59;87.78
71436;SHT31;59251;51.326;12.370;2024-03-08T03:33:12;0.53;87.97
71436;SHT31;59251;51.326;12.370;2024-03-08T03:35:40;0.62;88.00
71436;SHT31;59251;51.326;12.370;2024-03-08T03:38:08;0.59;87.76
71436;SHT31;59251;51.326;12.370;2024-03-08T03:40:35;0.55;88.09
71436;SHT31;59251;51.326;12.370;2024-03-08T03:43:03;0.55;87.99
71436;SHT31;59251;51.326;12.370;2024-03-08T03:45:30;0.57;88.12
71436;SHT31;59251;51.326;12.370;2024-03-08T03:48:02;0.52;88.06
71436;SHT31;59251;51.326;12.370;2024-03-08T03:50:28;0.46;88.44
71436;SHT31;59251;51.326;12.370;2024-03-08T03:52:55;0.46;88.55
71436;SHT31;59251;51.326;12.370;2024-03-08T03:55:22;0.45;88.69
71436;SHT31;59251;51.326;12.370;2024-03-08T03:57:49;0.49;88.41
71436;SHT31;59251;51.326;12.370;2024-03-08T04:00:16;0.38;88.68
71436;SHT31;59251;51.326;12.370;2024-03-08T04:02:42;0.35;88.87
71436;SHT31;59251;51.326;12.370;2024-03-08T04:05:11;0.38;88.66
71436;SHT31;59251;51.326;12.370;2024-03-08T04:07:38;0.37;88.87
71436;SHT31;59251;51.326;12.370;2024-03-08T04:10:06;0.41;88.83
71436;SHT31;59251;51.326;12.370;2024-03-08T04:12:33;0.38;88.85
71436;SHT31;59251;51.326;12.370;2024-03-08T04:15:00;0.37;88.92
71436;SHT31;59251;51.326;12.370;2024-03-08T04:17:27;0.44;89.03
71436;SHT31;59251;51.326;12.370;2024-03-08T04:19:54;0.39;88.86
71436;SHT31;59251;51.326;12.370;2024-03-08T04:22:22;0.35;88.96
71436;SHT31;59251;51.326;12.370;2024-03-08T04:24:49;0.41;88.95
71436;SHT31;59251;51.326;12.370;2024-03-08T04:27:16;0.33;89.11
71436;SHT31;59251;51.326;12.370;2024-03-08T04:29:43;0.39;89.13
71436;SHT31;59251;51.326;12.370;2024-03-08T04:32:09;0.41;89.09
71436;SHT31;59251;51.326;12.370;2024-03-08T04:34:36;0.29;89.14
71436;SHT31;59251;51.326;12.370;2024-03-08T04:37:03;0.33;89.12
71436;SHT31;59251;51.326;12.370;2024-03-08T04:39:31;0.33;89.18
71436;SHT31;59251;51.326;12.370;2024-03-08T04:42:02;0.35;89.26
71436;SHT31;59251;51.326;12.370;2024-03-08T04:44:30;0.29;89.34
71436;SHT31;59251;51.326;12.370;2024-03-08T04:46:57;0.24;89.49
71436;SHT31;59251;51.326;12.370;2024-03-08T04:49:23;0.26;89.56
71436;SHT31;59251;51.326;12.370;2024-03-08T04:51:50;0.24;89.75
71436;SHT31;59251;51.326;12.370;2024-03-08T04:54:17;0.22;89.75
71436;SHT31;59251;51.326;12.370;2024-03-08T04:56:45;0.18;89.76
71436;SHT31;59251;51.326;12.370;2024-03-08T04:59:12;0.22;89.62
71436;SHT31;59251;51.326;12.370;2024-03-08T05:01:39;0.26;89.71
71436;SHT31;59251;51.326;12.370;2024-03-08T05:04:05;0.22;89.57
71436;SHT31;59251;51.326;12.370;2024-03-08T05:06:32;0.26;89.48
71436;SHT31;59251;51.326;12.370;2024-03-08T05:08:59;0.24;89.72
71436;SHT31;59251;51.326;12.370;2024-03-08T05:11:26;0.29;89.57
71436;SHT31;59251;51.326;12.370;2024-03-08T05:13:54;0.32;89.46
71436;SHT31;59251;51.326;12.370;2024-03-08T05:16:21;0.19;89.67
71436;SHT31;59251;51.326;12.370;2024-03-08T05:18:49;0.29;89.46
71436;SHT31;59251;51.326;12.370;2024-03-08T05:21:16;0.25;89.55
71436;SHT31;59251;51.326;12.370;2024-03-08T05:23:45;0.29;89.58
71436;SHT31;59251;51.326;12.370;2024-03-08T05:26:12;0.22;89.86
71436;SHT31;59251;51.326;12.370;2024-03-08T05:28:39;0.42;89.30
71436;SHT31;59251;51.326;12.370;2024-03-08T05:31:07;0.42;89.22
71436;SHT31;59251;51.326;12.370;2024-03-08T05:33:34;0.32;89.40
71436;SHT31;59251;51.326;12.370;2024-03-08T05:36:02;0.35;89.45
71436;SHT31;59251;51.326;12.370;2024-03-08T05:38:29;0.29;89.52
71436;SHT31;59251;51.326;12.370;2024-03-08T05:40:56;0.29;89.49
71436;SHT31;59251;51.326;12.370;2024-03-08T05:43:22;0.35;89.61
71436;SHT31;59251;51.326;12.370;2024-03-08T05:45:50;0.41;89.31
71436;SHT31;59251;51.326;12.370;2024-03-08T05:48:18;0.45;89.34
71436;SHT31;59251;51.326;12.370;2024-03-08T05:50:45;0.44;89.10
71436;SHT31;59251;51.326;12.370;2024-03-08T05:53:12;0.49;89.21
71436;SHT31;59251;51.326;12.370;2024-03-08T05:55:38;0.52;89.14
71436;SHT31;59251;51.326;12.370;2024-03-08T05:58:06;0.60;88.83
71436;SHT31;59251;51.326;12.370;2024-03-08T06:00:33;0.55;88.93
71436;SHT31;59251;51.326;12.370;2024-03-08T06:03:02;0.57;88.78
71436;SHT31;59251;51.326;12.370;2024-03-08T06:05:30;0.55;88.81
71436;SHT31;59251;51.326;12.370;2024-03-08T06:07:57;0.59;88.58
71436;SHT31;59251;51.326;12.370;2024-03-08T06:10:24;0.62;88.76
71436;SHT31;59251;51.326;12.370;2024-03-08T06:12:51;0.69;88.67
71436;SHT31;59251;51.326;12.370;2024-03-08T06:15:17;0.69;88.59
71436;SHT31;59251;51.326;12.370;2024-03-08T06:17:46;0.66;88.68
71436;SHT31;59251;51.326;12.370;2024-03-08T06:20:13;0.67;88.42
71436;SHT31;59251;51.326;12.370;2024-03-08T06:22:41;0.73;88.64
71436;SHT31;59251;51.326;12.370;2024-03-08T06:25:08;0.63;88.54
71436;SHT31;59251;51.326;12.370;2024-03-08T06:27:36;0.62;88.67
71436;SHT31;59251;51.326;12.370;2024-03-08T06:30:03;0.65;88.69
71436;SHT31;59251;51.326;12.370;2024-03-08T06:32:31;0.73;88.77
71436;SHT31;59251;51.326;12.370;2024-03-08T06:35:01;0.66;88.44
71436;SHT31;59251;51.326;12.370;2024-03-08T06:37:28;1.17;88.88
71436;SHT31;59251;51.326;12.370;2024-03-08T06:39:56;1.24;87.89
71436;SHT31;59251;51.326;12.370;2024-03-08T06:42:22;1.24;87.23
71436;SHT31;59251;51.326;12.370;2024-03-08T06:44:49;1.25;86.92
71436;SHT31;59251;51.326;12.370;2024-03-08T06:47:16;1.34;86.94
71436;SHT31;59251;51.326;12.370;2024-03-08T06:49:43;1.34;86.77
71436;SHT31;59251;51.326;12.370;2024-03-08T06:52:09;1.44;86.66
71436;SHT31;59251;51.326;12.370;2024-03-08T06:54:36;1.53;86.38
71436;SHT31;59251;51.326;12.370;2024-03-08T06:57:05;1.49;86.46
71436;SHT31;59251;51.326;12.370;2024-03-08T06:59:32;1.67;86.09
71436;SHT31;59251;51.326;12.370;2024-03-08T07:02:01;1.69;85.68
71436;SHT31;59251;51.326;12.370;2024-03-08T07:04:27;1.65;85.66
71436;SHT31;59251;51.326;12.370;2024-03-08T07:06:55;1.80;85.40
71436;SHT31;59251;51.326;12.370;2024-03-08T07:09:23;1.89;85.35
71436;SHT31;59251;51.326;12.370;2024-03-08T07:11:50;2.03;84.95
71436;SHT31;59251;51.326;12.370;2024-03-08T07:14:21;1.87;85.07
71436;SHT31;59251;51.326;12.370;2024-03-08T07:16:48;2.09;84.79
71436;SHT31;59251;51.326;12.370;2024-03-08T07:19:15;2.18;84.48
71436;SHT31;59251;51.326;12.370;2024-03-08T07:21:42;2.30;84.13
71436;SHT31;59251;51.326;12.370;2024-03-08T07:24:09;2.27;84.06
71436;SHT31;59251;51.326;12.370;2024-03-08T07:26:53;2.30;84.12
71436;SHT31;59251;51.326;12.370;2024-03-08T07:29:22;2.31;84.18
71436;SHT31;59251;51.326;12.370;2024-03-08T07:31:49;2.37;84.03
71436;SHT31;59251;51.326;12.370;2024-03-08T07:34:26;2.62;83.62
71436;SHT31;59251;51.326;12.370;2024-03-08T07:36:55;2.56;83.21
71436;SHT31;59251;51.326;12.370;2024-03-08T07:39:22;2.63;83.12
71436;SHT31;59251;51.326;12.370;2024-03-08T07:41:49;2.59;82.99
71436;SHT31;59251;51.326;12.370;2024-03-08T07:44:18;2.69;83.13
71436;SHT31;59251;51.326;12.370;2024-03-08T07:46:46;2.51;83.39
71436;SHT31;59251;51.326;12.370;2024-03-08T07:49:12;2.69;83.28
71436;SHT31;59251;51.326;12.370;2024-03-08T07:51:40;2.79;82.95
71436;SHT31;59251;51.326;12.370;2024-03-08T07:54:07;3.14;82.30
71436;SHT31;59251;51.326;12.370;2024-03-08T07:56:34;3.30;81.97
71436;SHT31;59251;51.326;12.370;2024-03-08T07:59:01;3.44;81.29
71436;SHT31;59251;51.326;12.370;2024-03-08T08:01:29;3.37;81.13
71436;SHT31;59251;51.326;12.370;2024-03-08T08:03:57;3.61;81.06
71436;SHT31;59251;51.326;12.370;2024-03-08T08:06:24;3.58;80.54
71436;SHT31;59251;51.326;12.370;2024-03-08T08:08:51;3.62;80.63
71436;SHT31;59251;51.326;12.370;2024-03-08T08:11:17;3.74;80.26
71436;SHT31;59251;51.326;12.370;2024-03-08T08:13:45;3.93;79.78
71436;SHT31;59251;51.326;12.370;2024-03-08T08:16:12;3.96;79.79
71436;SHT31;59251;51.326;12.370;2024-03-08T08:18:39;3.87;79.94
71436;SHT31;59251;51.326;12.370;2024-03-08T08:21:07;4.00;79.65
71436;SHT31;59251;51.326;12.370;2024-03-08T08:23:35;3.90;79.94
71436;SHT31;59251;51.326;12.370;2024-03-08T08:26:02;3.86;79.90
71436;SHT31;59251;51.326;12.370;2024-03-08T08:28:30;3.95;79.97
71436;SHT31;59251;51.326;12.370;2024-03-08T08:30:56;4.13;79.75
71436;SHT31;59251;51.326;12.370;2024-03-08T08:33:25;4.43;79.31
71436;SHT31;59251;51.326;12.370;2024-03-08T08:35:52;4.51;79.12
71436;SHT31;59251;51.326;12.370;2024-03-08T08:38:21;4.69;78.59
71436;SHT31;59251;51.326;12.370;2024-03-08T08:40:48;4.72;78.32
71436;SHT31;59251;51.326;12.370;2024-03-08T08:43:15;4.71;78.45
71436;SHT31;59251;51.326;12.370;2024-03-08T08:45:42;4.79;78.55
71436;SHT31;59251;51.326;12.370;2024-03-08T08:48:08;4.89;78.08
71436;SHT31;59251;51.326;12.370;2024-03-08T08:50:36;5.09;77.71
71436;SHT31;59251;51.326;12.370;2024-03-08T08:53:03;5.26;77.43
71436;SHT31;59251;51.326;12.370;2024-03-08T08:55:33;5.39;76.99
71436;SHT31;59251;51.326;12.370;2024-03-08T08:58:01;5.62;76.56
71436;SHT31;59251;51.326;12.370;2024-03-08T09:00:29;5.60;76.38
71436;SHT31;59251;51.326;12.370;2024-03-08T09:02:57;5.58;76.54
71436;SHT31;59251;51.326;12.370;2024-03-08T09:05:24;5.48;76.55
71436;SHT31;59251;51.326;12.370;2024-03-08T09:07:51;5.61;76.77
71436;SHT31;59251;51.326;12.370;2024-03-08T09:10:19;5.70;76.57
71436;SHT31;59251;51.326;12.370;2024-03-08T09:12:48;5.74;76.39
71436;SHT31;59251;51.326;12.370;2024-03-08T09:15:15;5.91;76.07
71436;SHT31;59251;51.326;12.370;2024-03-08T09:17:43;5.98;75.92
71436;SHT31;59251;51.326;12.370;2024-03-08T09:20:10;5.92;75.85
71436;SHT31;59251;51.326;12.370;2024-03-08T09:22:40;5.95;75.77
71436;SHT31;59251;51.326;12.370;2024-03-08T09:25:07;6.06;75.58
71436;SHT31;59251;51.326;12.370;2024-03-08T09:27:35;6.06;75.49
71436;SHT31;59251;51.326;12.370;2024-03-08T09:30:04;5.94;75.41
71436;SHT31;59251;51.326;12.370;2024-03-08T09:32:32;6.09;75.33
71436;SHT31;59251;51.326;12.370;2024-03-08T09:34:59;6.19;74.98
71436;SHT31;59251;51.326;12.370;2024-03-08T09:37:26;6.37;74.62
71436;SHT31;59251;51.326;12.370;2024-03-08T09:39:53;6.29;74.49
71436;SHT31;59251;51.326;12.370;2024-03-08T09:42:20;6.57;74.08
71436;SHT31;59251;51.326;12.370;2024-03-08T09:44:47;6.50;73.88
71436;SHT31;59251;51.326;12.370;2024-03-08T09:47:15;6.71;73.61
71436;SHT31;59251;51.326;12.370;2024-03-08T09:49:42;6.71;73.39
71436;SHT31;59251;51.326;12.370;2024-03-08T09:52:10;6.70;73.57
71436;SHT31;59251;51.326;12.370;2024-03-08T09:54:37;6.48;74.01
71436;SHT31;59251;51.326;12.370;2024-03-08T09:57:06;6.19;74.72
71436;SHT31;59251;51.326;12.370;2024-03-08T09:59:34;6.65;74.09
71436;SHT31;59251;51.326;12.370;2024-03-08T10:02:15;6.67;73.89
71436;SHT31;59251;51.326;12.370;2024-03-08T10:04:43;6.83;73.93
71436;SHT31;59251;51.326;12.370;2024-03-08T10:07:12;6.51;74.36
71436;SHT31;59251;51.326;12.370;2024-03-08T10:09:39;6.75;73.99
71436;SHT31;59251;51.326;12.370;2024-03-08T10:12:07;6.81;74.04
71436;SHT31;59251;51.326;12.370;2024-03-08T10:14:39;6.99;73.52
71436;SHT31;59251;51.326;12.370;2024-03-08T10:17:06;7.13;72.82
71436;SHT31;59251;51.326;12.370;2024-03-08T10:19:34;6.96;72.50
71436;SHT31;59251;51.326;12.370;2024-03-08T10:22:01;7.02;72.26
71436;SHT31;59251;51.326;12.370;2024-03-08T10:24:30;7.13;71.39
71436;SHT31;59251;51.326;12.370;2024-03-08T10:26:59;7.06;71.54
71436;SHT31;59251;51.326;12.370;2024-03-08T10:29:25;7.18;71.87
71436;SHT31;59251;51.326;12.370;2024-03-08T10:31:52;7.40;71.88
71436;SHT31;59251;51.326;12.370;2024-03-08T10:34:22;7.60;70.63
71436;SHT31;59251;51.326;12.370;2024-03-08T10:36:51;7.54;70.57
71436;SHT31;59251;51.326;12.370;2024-03-08T10:39:21;7.53;70.88
71436;SHT31;59251;51.326;12.370;2024-03-08T10:41:53;7.84;70.62
71436;SHT31;59251;51.326;12.370;2024-03-08T10:44:40;7.87;70.70
71436;SHT31;59251;51.326;12.370;2024-03-08T10:47:17;7.84;69.94
71436;SHT31;59251;51.326;12.370;2024-03-08T10:49:51;7.60;69.83
71436;SHT31;59251;51.326;12.370;2024-03-08T10:52:21;7.61;70.06
71436;SHT31;59251;51.326;12.370;2024-03-08T10:54:48;7.47;70.51
71436;SHT31;59251;51.326;12.370;2024-03-08T10:57:18;7.85;70.42
71436;SHT31;59251;51.326;12.370;2024-03-08T10:59:47;7.91;69.78
71436;SHT31;59251;51.326;12.370;2024-03-08T11:02:16;7.99;69.92
71436;SHT31;59251;51.326;12.370;2024-03-08T11:04:46;8.06;69.97
71436;SHT31;59251;51.326;12.370;2024-03-08T11:07:13;8.18;69.47
71436;SHT31;59251;51.326;12.370;2024-03-08T11:09:44;8.32;69.26
71436;SHT31;59251;51.326;12.370;2024-03-08T11:12:24;8.45;68.37
71436;SHT31;59251;51.326;12.370;2024-03-08T11:14:55;8.46;68.34
71436;SHT31;59251;51.326;12.370;2024-03-08T11:17:39;8.49;68.20
71436;SHT31;59251;51.326;12.370;2024-03-08T11:20:09;8.67;67.94
71436;SHT31;59251;51.326;12.370;2024-03-08T11:22:41;8.87;67.45
71436;SHT31;59251;51.326;12.370;2024-03-08T11:25:30;8.71;67.86
71436;SHT31;59251;51.326;12.370;2024-03-08T11:28:07;8.90;67.37
71436;SHT31;59251;51.326;12.370;2024-03-08T11:30:34;8.80;66.45
71436;SHT31;59251;51.326;12.370;2024-03-08T11:33:01;8.84;66.67
71436;SHT31;59251;51.326;12.370;2024-03-08T11:35:28;8.80;67.10
71436;SHT31;59251;51.326;12.370;2024-03-08T11:37:57;8.57;67.00
71436;SHT31;59251;51.326;12.370;2024-03-08T11:40:27;8.71;67.58
71436;SHT31;59251;51.326;12.370;2024-03-08T11:42:53;8.80;67.34
71436;SHT31;59251;51.326;12.370;2024-03-08T11:45:21;9.15;66.51
71436;SHT31;59251;51.326;12.370;2024-03-08T11:47:47;9.07;66.28
71436;SHT31;59251;51.326;12.370;2024-03-08T11:50:14;9.01;66.75
71436;SHT31;59251;51.326;12.370;2024-03-08T11:52:42;9.14;66.97
71436;SHT31;59251;51.326;12.370;2024-03-08T11:55:11;10.00;65.01
71436;SHT31;59251;51.326;12.370;2024-03-08T11:57:39;10.37;63.22
71436;SHT31;59251;51.326;12.370;2024-03-08T12:00:15;10.79;61.63
71436;SHT31;59251;51.326;12.370;2024-03-08T12:03:01;10.83;61.93
71436;SHT31;59251;51.326;12.370;2024-03-08T12:05:27;10.62;61.83
71436;SHT31;59251;51.326;12.370;2024-03-08T12:07:57;10.90;62.33
71436;SHT31;59251;51.326;12.370;2024-03-08T12:10:24;11.00;61.87
71436;SHT31;59251;51.326;12.370;2024-03-08T12:12:53;11.59;60.65
71436;SHT31;59251;51.326;12.370;2024-03-08T12:15:22;11.52;60.79
71436;SHT31;59251;51.326;12.370;2024-03-08T12:17:50;11.90;59.69
71436;SHT31;59251;51.326;12.370;2024-03-08T12:20:19;12.32;59.15
71436;SHT31;59251;51.326;12.370;2024-03-08T12:22:47;13.05;58.09
71436;SHT31;59251;51.326;12.370;2024-03-08T12:25:15;11.97;59.85
71436;SHT31;59251;51.326;12.370;2024-03-08T12:27:44;12.32;59.04
71436;SHT31;59251;51.326;12.370;2024-03-08T12:30:20;12.44;58.34
71436;SHT31;59251;51.326;12.370;2024-03-08T12:32:55;13.02;57.29
71436;SHT31;59251;51.326;12.370;2024-03-08T12:35:24;13.29;56.84
71436;SHT31;59251;51.326;12.370;2024-03-08T12:37:53;13.66;56.86
71436;SHT31;59251;51.326;12.370;2024-03-08T12:40:26;13.78;56.62
71436;SHT31;59251;51.326;12.370;2024-03-08T12:42:54;14.32;55.72
71436;SHT31;59251;51.326;12.370;2024-03-08T12:45:22;14.28;54.78
71436;SHT31;59251;51.326;12.370;2024-03-08T12:47:50;14.42;55.37
71436;SHT31;59251;51.326;12.370;2024-03-08T12:50:17;13.40;55.13
71436;SHT31;59251;51.326;12.370;2024-03-08T12:52:43;12.84;57.57
71436;SHT31;59251;51.326;12.370;2024-03-08T12:55:10;14.39;55.09
71436;SHT31;59251;51.326;12.370;2024-03-08T12:57:38;13.85;55.83
71436;SHT31;59251;51.326;12.370;2024-03-08T13:00:05;14.12;55.48
71436;SHT31;59251;51.326;12.370;2024-03-08T13:02:39;14.43;54.91
71436;SHT31;59251;51.326;12.370;2024-03-08T13:05:07;14.83;53.57
71436;SHT31;59251;51.326;12.370;2024-03-08T13:07:36;15.59;52.12
71436;SHT31;59251;51.326;12.370;2024-03-08T13:10:04;15.04;53.23
71436;SHT31;59251;51.326;12.370;2024-03-08T13:12:32;15.05;53.26
71436;SHT31;59251;51.326;12.370;2024-03-08T13:15:00;14.00;55.58
71436;SHT31;59251;51.326;12.370;2024-03-08T13:17:27;15.00;53.86
71436;SHT31;59251;51.326;12.370;2024-03-08T13:19:55;15.39;54.09
71436;SHT31;59251;51.326;12.370;2024-03-08T13:22:24;15.36;53.40
71436;SHT31;59251;51.326;12.370;2024-03-08T13:24:51;14.73;54.02
71436;SHT31;59251;51.326;12.370;2024-03-08T13:27:18;15.11;52.75
71436;SHT31;59251;51.326;12.370;2024-03-08T13:29:46;15.85;51.82
71436;SHT31;59251;51.326;12.370;2024-03-08T13:32:14;16.80;50.25
71436;SHT31;59251;51.326;12.370;2024-03-08T13:34:41;16.40;51.17
71436;SHT31;59251;51.326;12.370;2024-03-08T13:37:09;15.05;53.50
71436;SHT31;59251;51.326;12.370;2024-03-08T13:39:37;14.57;54.44
71436;SHT31;59251;51.326;12.370;2024-03-08T13:42:10;16.27;51.43
71436;SHT31;59251;51.326;12.370;2024-03-08T13:44:39;15.85;53.02
71436;SHT31;59251;51.326;12.370;2024-03-08T13:47:06;15.56;53.01
71436;SHT31;59251;51.326;12.370;2024-03-08T13:49:33;15.53;52.81
71436;SHT31;59251;51.326;12.370;2024-03-08T13:52:00;17.17;51.02
71436;SHT31;59251;51.326;12.370;2024-03-08T13:54:28;15.63;52.81
71436;SHT31;59251;51.326;12.370;2024-03-08T13:56:57;16.24;51.90
71436;SHT31;59251;51.326;12.370;2024-03-08T13:59:24;16.71;51.87
71436;SHT31;59251;51.326;12.370;2024-03-08T14:01:55;16.84;50.97
71436;SHT31;59251;51.326;12.370;2024-03-08T14:04:23;16.00;52.21
71436;SHT31;59251;51.326;12.370;2024-03-08T14:06:50;16.32;52.14
71436;SHT31;59251;51.326;12.370;2024-03-08T14:09:22;16.04;53.04
71436;SHT31;59251;51.326;12.370;2024-03-08T14:11:51;14.97;53.69
71436;SHT31;59251;51.326;12.370;2024-03-08T14:14:20;15.18;53.86
71436;SHT31;59251;51.326;12.370;2024-03-08T14:16:48;15.69;52.62
71436;SHT31;59251;51.326;12.370;2024-03-08T14:19:18;15.62;53.02
71436;SHT31;59251;51.326;12.370;2024-03-08T14:21:45;15.58;52.52
71436;SHT31;59251;51.326;12.370;2024-03-08T14:24:14;15.70;52.26
71436;SHT31;59251;51.326;12.370;2024-03-08T14:26:41;15.20;53.25
71436;SHT31;59251;51.326;12.370;2024-03-08T14:29:09;15.43;53.17
71436;SHT31;59251;51.326;12.370;2024-03-08T14:31:36;14.97;55.32
71436;SHT31;59251;51.326;12.370;2024-03-08T14:34:03;15.70;53.08
71436;SHT31;59251;51.326;12.370;2024-03-08T14:36:30;15.36;52.69
71436;SHT31;59251;51.326;12.370;2024-03-08T14:38:57;15.42;53.60
71436;SHT31;59251;51.326;12.370;2024-03-08T14:41:23;14.72;55.63
71436;SHT31;59251;51.326;12.370;2024-03-08T14:43:52;15.90;53.10
71436;SHT31;59251;51.326;12.370;2024-03-08T14:46:20;14.83;53.84
71436;SHT31;59251;51.326;12.370;2024-03-08T14:48:48;14.53;55.43
71436;SHT31;59251;51.326;12.370;2024-03-08T14:51:17;14.46;55.21
71436;SHT31;59251;51.326;12.370;2024-03-08T14:53:46;14.70;54.39
71436;SHT31;59251;51.326;12.370;2024-03-08T14:56:13;15.11;53.92
71436;SHT31;59251;51.326;12.370;2024-03-08T14:58:41;15.24;54.09
71436;SHT31;59251;51.326;12.370;2024-03-08T15:01:09;15.52;53.96
71436;SHT31;59251;51.326;12.370;2024-03-08T15:03:40;16.54;52.16
71436;SHT31;59251;51.326;12.370;2024-03-08T15:06:08;16.38;51.71
71436;SHT31;59251;51.326;12.370;2024-03-08T15:08:36;15.66;52.90
71436;SHT31;59251;51.326;12.370;2024-03-08T15:11:03;16.13;52.85
71436;SHT31;59251;51.326;12.370;2024-03-08T15:13:31;14.29;55.51
71436;SHT31;59251;51.326;12.370;2024-03-08T15:16:07;14.85;54.65
71436;SHT31;59251;51.326;12.370;2024-03-08T15:18:37;15.77;54.05
71436;SHT31;59251;51.326;12.370;2024-03-08T15:21:06;15.46;53.59
71436;SHT31;59251;51.326;12.370;2024-03-08T15:23:34;15.71;53.62
71436;SHT31;59251;51.326;12.370;2024-03-08T15:26:01;15.49;53.67
71436;SHT31;59251;51.326;12.370;2024-03-08T15:28:29;15.36;54.29
71436;SHT31;59251;51.326;12.370;2024-03-08T15:31:03;15.21;54.72
71436;SHT31;59251;51.326;12.370;2024-03-08T15:33:32;14.62;55.43